Cawker City, KS

4:54 AM CST on February 10, 2016 (GMT -0600)
Cawker City | | Change Station
CLOSE
Current Station
Personal Weather Station
Location: Cawker City, KS
Elevation: 1490 ft
Nearby Weather Stations

Elev 1490 ft 39.51 °N, 98.44 °W | Updated 12 seconds ago

Partly Cloudy
Partly Cloudy
26.8 °F
Feels Like 27 °F
N
0.0
Wind Variable Wind from SW
Gusts 0.0 mph

Today
High -- | Low -- °F
--% Chance of Precip.
Yesterday
High -- | Low -- °F
Precip. -- in
Pressure 30.15 in
Visibility 10.0 miles
Clouds Overcast 8500 ft
Windchill 27 °F
Dew Point 21 °F
Humidity 79%
Rainfall 0.00 in
Snow Depth Not available.
7:32 AM 6:03 PM
Waxing Crescent, 5% visible
METAR KCNK 100955Z AUTO 18008KT 10SM OVC085 M03/M09 A3010 RMK AO2 PRESFR SLP208 T10281094
Pressure 30.15 in
Visibility 10.0 miles
Clouds Overcast 8500 ft
Windchill 27 °F
Dew Point 21 °F
Humidity 79%
Rainfall 0.00 in
Snow Depth Not available.
7:32 AM 6:03 PM
Waxing Crescent, 5% visible
METAR KCNK 100955Z AUTO 18008KT 10SM OVC085 M03/M09 A3010 RMK AO2 PRESFR SLP208 T10281094

10-Day Weather Forecast

Almanac

Astronomy

Feb. 10, 2016 Rise Set
Actual Time
Civil Twilight
Nautical Twilight
Astronomical Twilight
Moon
Length of Visible Light
Length of Day
Tomorrow will be .
, % of the Moon is Illuminated

Today's Extremes

State Highs State Lows

Community

WunderPhotos

Upload Photos

1,891,830 photos uploaded!

WunderBlog® & News

Nearby

Air Quality

  Air Quality AQ Index Pollutant
Not available.

Snow Depth

Station Depth Elevation

Earthquake Activity

City Distance Mag. Time & Date
Minimum magnitude displayed is 2.5.

Coastal Water Temperatures

Place Temperature

Stations

Nearby Weather Stations

Station Location Temp. Windchill Dew Point Humidity Wind Precip. Elev Updated Type
                   

Watches & Warnings

There are currently no watches in effect.